sensor_id;sensor_type;location;lat;lon;timestamp;temperature;humidity
9666;DHT22;4871;52.004;5.924;2023-03-09T00:00:11;2.3;78.3
9666;DHT22;4871;52.004;5.924;2023-03-09T00:01:15;2.3;78.3
9666;DHT22;4871;52.004;5.924;2023-03-09T00:02:10;2.3;78.3
9666;DHT22;4871;52.004;5.924;2023-03-09T00:03:10;2.3;78.3
9666;DHT22;4871;52.004;5.924;2023-03-09T00:04:12;2.2;78.1
9666;DHT22;4871;52.004;5.924;2023-03-09T00:05:11;2.2;78.3
9666;DHT22;4871;52.004;5.924;2023-03-09T00:06:10;2.2;78.3
9666;DHT22;4871;52.004;5.924;2023-03-09T00:07:10;2.2;78.3
9666;DHT22;4871;52.004;5.924;2023-03-09T00:08:10;2.2;78.1
9666;DHT22;4871;52.004;5.924;2023-03-09T00:09:12;2.3;78.2
9666;DHT22;4871;52.004;5.924;2023-03-09T00:10:11;2.2;78.4
9666;DHT22;4871;52.004;5.924;2023-03-09T00:11:10;2.2;78.6
9666;DHT22;4871;52.004;5.924;2023-03-09T00:12:10;2.2;78.5
9666;DHT22;4871;52.004;5.924;2023-03-09T00:13:10;2.2;78.5
9666;DHT22;4871;52.004;5.924;2023-03-09T00:14:10;2.2;78.5
9666;DHT22;4871;52.004;5.924;2023-03-09T00:15:11;2.2;78.5
9666;DHT22;4871;52.004;5.924;2023-03-09T00:16:12;2.2;78.4
9666;DHT22;4871;52.004;5.924;2023-03-09T00:17:10;2.2;78.5
9666;DHT22;4871;52.004;5.924;2023-03-09T00:18:10;2.2;78.4
9666;DHT22;4871;52.004;5.924;2023-03-09T00:19:10;2.2;78.4
9666;DHT22;4871;52.004;5.924;2023-03-09T00:20:10;2.2;78.5
9666;DHT22;4871;52.004;5.924;2023-03-09T00:21:11;2.2;78.4
9666;DHT22;4871;52.004;5.924;2023-03-09T00:22:10;2.2;78.4
9666;DHT22;4871;52.004;5.924;2023-03-09T00:23:10;2.2;78.6
9666;DHT22;4871;52.004;5.924;2023-03-09T00:24:12;2.2;78.6
9666;DHT22;4871;52.004;5.924;2023-03-09T00:25:10;2.2;78.5
9666;DHT22;4871;52.004;5.924;2023-03-09T00:26:10;2.2;78.3
9666;DHT22;4871;52.004;5.924;2023-03-09T00:27:10;2.2;78.3
9666;DHT22;4871;52.004;5.924;2023-03-09T00:28:10;2.2;78.2
9666;DHT22;4871;52.004;5.924;2023-03-09T00:29:11;2.2;78.3
9666;DHT22;4871;52.004;5.924;2023-03-09T00:30:11;2.2;78.2
9666;DHT22;4871;52.004;5.924;2023-03-09T00:31:10;2.2;78.2
9666;DHT22;4871;52.004;5.924;2023-03-09T00:32:10;2.2;78.3
9666;DHT22;4871;52.004;5.924;2023-03-09T00:33:10;2.2;78.4
9666;DHT22;4871;52.004;5.924;2023-03-09T00:34:12;2.2;78.3
9666;DHT22;4871;52.004;5.924;2023-03-09T00:35:10;2.2;78.3
9666;DHT22;4871;52.004;5.924;2023-03-09T00:36:12;2.2;78.4
9666;DHT22;4871;52.004;5.924;2023-03-09T00:37:10;2.2;78.3
9666;DHT22;4871;52.004;5.924;2023-03-09T00:38:10;2.2;78.4
9666;DHT22;4871;52.004;5.924;2023-03-09T00:39:12;2.2;78.4
9666;DHT22;4871;52.004;5.924;2023-03-09T00:40:11;2.2;78.4
9666;DHT22;4871;52.004;5.924;2023-03-09T00:41:10;2.1;78.5
9666;DHT22;4871;52.004;5.924;2023-03-09T00:42:10;2.2;78.5
9666;DHT22;4871;52.004;5.924;2023-03-09T00:43:10;2.1;78.6
9666;DHT22;4871;52.004;5.924;2023-03-09T00:44:11;2.1;78.8
9666;DHT22;4871;52.004;5.924;2023-03-09T00:45:12;2.1;78.6
9666;DHT22;4871;52.004;5.924;2023-03-09T00:46:10;2.1;78.6
9666;DHT22;4871;52.004;5.924;2023-03-09T00:47:10;2.1;78.5
9666;DHT22;4871;52.004;5.924;2023-03-09T00:48:10;2.1;78.4
9666;DHT22;4871;52.004;5.924;2023-03-09T00:49:12;2.1;78.5
9666;DHT22;4871;52.004;5.924;2023-03-09T00:50:10;2.2;78.3
9666;DHT22;4871;52.004;5.924;2023-03-09T00:51:11;2.2;78.3
9666;DHT22;4871;52.004;5.924;2023-03-09T00:52:10;2.1;78.3
9666;DHT22;4871;52.004;5.924;2023-03-09T00:53:10;2.1;78.3
9666;DHT22;4871;52.004;5.924;2023-03-09T00:54:11;2.1;78.4
9666;DHT22;4871;52.004;5.924;2023-03-09T00:55:10;2.1;78.5
9666;DHT22;4871;52.004;5.924;2023-03-09T00:56:14;2.1;78.5
9666;DHT22;4871;52.004;5.924;2023-03-09T00:57:10;2.1;78.5
9666;DHT22;4871;52.004;5.924;2023-03-09T00:58:10;2.1;78.5
9666;DHT22;4871;52.004;5.924;2023-03-09T00:59:10;2.1;78.4
9666;DHT22;4871;52.004;5.924;2023-03-09T01:00:11;2.1;78.5
9666;DHT22;4871;52.004;5.924;2023-03-09T01:01:13;2.1;78.6
9666;DHT22;4871;52.004;5.924;2023-03-09T01:02:10;2.1;78.6
9666;DHT22;4871;52.004;5.924;2023-03-09T01:03:10;2.1;78.5
9666;DHT22;4871;52.004;5.924;2023-03-09T01:04:10;2.1;78.7
9666;DHT22;4871;52.004;5.924;2023-03-09T01:05:10;2.1;78.7
9666;DHT22;4871;52.004;5.924;2023-03-09T01:06:11;2.1;78.5
9666;DHT22;4871;52.004;5.924;2023-03-09T01:07:10;2.1;78.5
9666;DHT22;4871;52.004;5.924;2023-03-09T01:08:10;2.1;78.6
9666;DHT22;4871;52.004;5.924;2023-03-09T01:09:10;2.1;78.5
9666;DHT22;4871;52.004;5.924;2023-03-09T01:10:11;2.1;78.5
9666;DHT22;4871;52.004;5.924;2023-03-09T01:11:12;2.1;78.5
9666;DHT22;4871;52.004;5.924;2023-03-09T01:12:10;2.1;78.3
9666;DHT22;4871;52.004;5.924;2023-03-09T01:13:10;2.1;78.6
9666;DHT22;4871;52.004;5.924;2023-03-09T01:14:10;2.1;78.6
9666;DHT22;4871;52.004;5.924;2023-03-09T01:15:11;2.1;78.6
9666;DHT22;4871;52.004;5.924;2023-03-09T01:16:10;2.1;78.4
9666;DHT22;4871;52.004;5.924;2023-03-09T01:17:10;2.1;78.4
9666;DHT22;4871;52.004;5.924;2023-03-09T01:18:10;2.1;78.3
9666;DHT22;4871;52.004;5.924;2023-03-09T01:19:10;2.0;78.6
9666;DHT22;4871;52.004;5.924;2023-03-09T01:20:11;2.1;78.5
9666;DHT22;4871;52.004;5.924;2023-03-09T01:21:10;2.1;78.5
9666;DHT22;4871;52.004;5.924;2023-03-09T01:22:10;2.0;78.7
9666;DHT22;4871;52.004;5.924;2023-03-09T01:23:10;2.1;78.5
9666;DHT22;4871;52.004;5.924;2023-03-09T01:24:10;2.1;78.4
9666;DHT22;4871;52.004;5.924;2023-03-09T01:25:10;2.1;78.4
9666;DHT22;4871;52.004;5.924;2023-03-09T01:26:11;2.1;78.5
9666;DHT22;4871;52.004;5.924;2023-03-09T01:27:10;2.1;78.6
9666;DHT22;4871;52.004;5.924;2023-03-09T01:28:10;2.1;78.5
9666;DHT22;4871;52.004;5.924;2023-03-09T01:29:10;2.1;78.5
9666;DHT22;4871;52.004;5.924;2023-03-09T01:30:11;2.1;78.6
9666;DHT22;4871;52.004;5.924;2023-03-09T01:31:11;2.1;78.2
9666;DHT22;4871;52.004;5.924;2023-03-09T01:32:10;2.1;78.4
9666;DHT22;4871;52.004;5.924;2023-03-09T01:33:10;2.0;78.5
9666;DHT22;4871;52.004;5.924;2023-03-09T01:34:11;2.0;78.7
9666;DHT22;4871;52.004;5.924;2023-03-09T01:35:10;2.1;78.5
9666;DHT22;4871;52.004;5.924;2023-03-09T01:36:13;2.1;78.7
9666;DHT22;4871;52.004;5.924;2023-03-09T01:37:10;2.1;78.7
9666;DHT22;4871;52.004;5.924;2023-03-09T01:38:10;2.1;78.6
9666;DHT22;4871;52.004;5.924;2023-03-09T01:39:10;2.1;78.4
9666;DHT22;4871;52.004;5.924;2023-03-09T01:40:16;2.1;78.5
9666;DHT22;4871;52.004;5.924;2023-03-09T01:41:11;2.1;78.4
9666;DHT22;4871;52.004;5.924;2023-03-09T01:42:10;2.1;78.4
9666;DHT22;4871;52.004;5.924;2023-03-09T01:43:26;2.1;78.4
9666;DHT22;4871;52.004;5.924;2023-03-09T01:44:11;2.1;78.3
9666;DHT22;4871;52.004;5.924;2023-03-09T01:46:45;2.1;78.3
9666;DHT22;4871;52.004;5.924;2023-03-09T01:47:10;2.1;78.3
9666;DHT22;4871;52.004;5.924;2023-03-09T01:48:10;2.0;78.5
9666;DHT22;4871;52.004;5.924;2023-03-09T01:49:13;2.0;78.6
9666;DHT22;4871;52.004;5.924;2023-03-09T01:50:11;2.0;78.6
9666;DHT22;4871;52.004;5.924;2023-03-09T01:51:10;2.0;78.6
9666;DHT22;4871;52.004;5.924;2023-03-09T01:52:13;2.1;78.5
9666;DHT22;4871;52.004;5.924;2023-03-09T01:53:12;2.1;78.3
9666;DHT22;4871;52.004;5.924;2023-03-09T01:54:14;2.1;78.3
9666;DHT22;4871;52.004;5.924;2023-03-09T01:55:13;2.1;78.3
9666;DHT22;4871;52.004;5.924;2023-03-09T01:56:10;2.1;78.4
9666;DHT22;4871;52.004;5.924;2023-03-09T01:57:15;2.1;78.3
9666;DHT22;4871;52.004;5.924;2023-03-09T01:58:13;2.1;78.4
9666;DHT22;4871;52.004;5.924;2023-03-09T01:59:11;2.1;78.3
9666;DHT22;4871;52.004;5.924;2023-03-09T02:00:12;2.1;78.2
9666;DHT22;4871;52.004;5.924;2023-03-09T02:01:10;2.1;78.3
9666;DHT22;4871;52.004;5.924;2023-03-09T02:02:12;2.1;78.3
9666;DHT22;4871;52.004;5.924;2023-03-09T02:03:12;2.1;78.5
9666;DHT22;4871;52.004;5.924;2023-03-09T02:04:15;2.0;78.3
9666;DHT22;4871;52.004;5.924;2023-03-09T02:05:12;2.1;78.4
9666;DHT22;4871;52.004;5.924;2023-03-09T02:06:12;2.0;78.5
9666;DHT22;4871;52.004;5.924;2023-03-09T02:07:11;2.0;78.5
9666;DHT22;4871;52.004;5.924;2023-03-09T02:08:11;2.0;78.6
9666;DHT22;4871;52.004;5.924;2023-03-09T02:09:15;2.0;78.5
9666;DHT22;4871;52.004;5.924;2023-03-09T02:10:14;2.1;78.4
9666;DHT22;4871;52.004;5.924;2023-03-09T02:11:11;2.1;78.4
9666;DHT22;4871;52.004;5.924;2023-03-09T02:12:19;2.0;78.4
9666;DHT22;4871;52.004;5.924;2023-03-09T02:13:12;2.1;78.5
9666;DHT22;4871;52.004;5.924;2023-03-09T02:14:10;2.1;78.2
9666;DHT22;4871;52.004;5.924;2023-03-09T02:15:10;2.1;78.2
9666;DHT22;4871;52.004;5.924;2023-03-09T02:16:10;2.1;78.2
9666;DHT22;4871;52.004;5.924;2023-03-09T02:17:11;2.1;78.4
9666;DHT22;4871;52.004;5.924;2023-03-09T02:18:10;2.0;78.4
9666;DHT22;4871;52.004;5.924;2023-03-09T02:19:16;2.0;78.6
9666;DHT22;4871;52.004;5.924;2023-03-09T02:20:17;2.0;78.6
9666;DHT22;4871;52.004;5.924;2023-03-09T02:21:14;2.0;78.6
9666;DHT22;4871;52.004;5.924;2023-03-09T02:22:10;2.1;78.4
9666;DHT22;4871;52.004;5.924;2023-03-09T02:23:14;2.1;78.3
9666;DHT22;4871;52.004;5.924;2023-03-09T02:24:16;2.1;78.4
9666;DHT22;4871;52.004;5.924;2023-03-09T02:25:16;2.0;78.5
9666;DHT22;4871;52.004;5.924;2023-03-09T02:26:15;2.0;78.5
9666;DHT22;4871;52.004;5.924;2023-03-09T02:27:12;2.0;78.5
9666;DHT22;4871;52.004;5.924;2023-03-09T02:28:10;2.0;78.6
9666;DHT22;4871;52.004;5.924;2023-03-09T02:29:11;2.0;78.5
9666;DHT22;4871;52.004;5.924;2023-03-09T02:30:11;2.0;78.4
9666;DHT22;4871;52.004;5.924;2023-03-09T02:31:11;2.0;78.2
9666;DHT22;4871;52.004;5.924;2023-03-09T02:32:10;2.0;78.4
9666;DHT22;4871;52.004;5.924;2023-03-09T02:33:19;2.0;78.5
9666;DHT22;4871;52.004;5.924;2023-03-09T02:34:11;2.1;78.4
9666;DHT22;4871;52.004;5.924;2023-03-09T02:35:11;2.1;78.3
9666;DHT22;4871;52.004;5.924;2023-03-09T02:36:10;2.1;78.2
9666;DHT22;4871;52.004;5.924;2023-03-09T02:37:21;2.0;78.3
9666;DHT22;4871;52.004;5.924;2023-03-09T02:38:12;2.0;78.5
9666;DHT22;4871;52.004;5.924;2023-03-09T02:39:18;2.0;78.6
9666;DHT22;4871;52.004;5.924;2023-03-09T02:40:12;2.0;78.4
9666;DHT22;4871;52.004;5.924;2023-03-09T02:41:12;2.0;78.5
9666;DHT22;4871;52.004;5.924;2023-03-09T02:42:10;2.0;78.3
9666;DHT22;4871;52.004;5.924;2023-03-09T02:43:11;2.1;78.4
9666;DHT22;4871;52.004;5.924;2023-03-09T02:44:11;2.0;78.4
9666;DHT22;4871;52.004;5.924;2023-03-09T02:45:12;2.0;78.5
9666;DHT22;4871;52.004;5.924;2023-03-09T02:46:10;2.0;78.4
9666;DHT22;4871;52.004;5.924;2023-03-09T02:47:17;2.0;78.4
9666;DHT22;4871;52.004;5.924;2023-03-09T02:48:10;2.0;78.4
9666;DHT22;4871;52.004;5.924;2023-03-09T02:49:10;2.1;78.4
9666;DHT22;4871;52.004;5.924;2023-03-09T02:50:10;2.1;78.4
9666;DHT22;4871;52.004;5.924;2023-03-09T02:51:10;2.1;78.2
9666;DHT22;4871;52.004;5.924;2023-03-09T02:52:10;2.1;78.2
9666;DHT22;4871;52.004;5.924;2023-03-09T02:53:10;2.1;78.3
9666;DHT22;4871;52.004;5.924;2023-03-09T02:54:10;2.1;78.4
9666;DHT22;4871;52.004;5.924;2023-03-09T02:55:10;2.0;78.4
9666;DHT22;4871;52.004;5.924;2023-03-09T02:56:10;2.1;78.3
9666;DHT22;4871;52.004;5.924;2023-03-09T02:57:10;2.0;78.4
9666;DHT22;4871;52.004;5.924;2023-03-09T02:58:10;2.0;78.3
9666;DHT22;4871;52.004;5.924;2023-03-09T02:59:10;2.0;78.2
9666;DHT22;4871;52.004;5.924;2023-03-09T03:00:12;2.0;78.3
9666;DHT22;4871;52.004;5.924;2023-03-09T03:01:10;2.0;78.4
9666;DHT22;4871;52.004;5.924;2023-03-09T03:02:10;2.0;78.2
9666;DHT22;4871;52.004;5.924;2023-03-09T03:03:10;2.1;78.3
9666;DHT22;4871;52.004;5.924;2023-03-09T03:04:10;2.0;78.2
9666;DHT22;4871;52.004;5.924;2023-03-09T03:05:10;2.0;78.3
9666;DHT22;4871;52.004;5.924;2023-03-09T03:06:10;2.0;78.3
9666;DHT22;4871;52.004;5.924;2023-03-09T03:07:10;2.0;78.3
9666;DHT22;4871;52.004;5.924;2023-03-09T03:08:10;2.0;78.3
9666;DHT22;4871;52.004;5.924;2023-03-09T03:09:10;2.0;78.3
9666;DHT22;4871;52.004;5.924;2023-03-09T03:10:12;2.0;78.4
9666;DHT22;4871;52.004;5.924;2023-03-09T03:11:10;2.0;78.3
9666;DHT22;4871;52.004;5.924;2023-03-09T03:12:10;2.0;78.3
9666;DHT22;4871;52.004;5.924;2023-03-09T03:13:10;2.0;78.3
9666;DHT22;4871;52.004;5.924;2023-03-09T03:14:10;2.0;78.5
9666;DHT22;4871;52.004;5.924;2023-03-09T03:15:10;2.0;78.4
9666;DHT22;4871;52.004;5.924;2023-03-09T03:16:10;2.0;78.4
9666;DHT22;4871;52.004;5.924;2023-03-09T03:17:10;2.1;78.2
9666;DHT22;4871;52.004;5.924;2023-03-09T03:18:10;2.0;78.3
9666;DHT22;4871;52.004;5.924;2023-03-09T03:19:10;2.0;78.3
9666;DHT22;4871;52.004;5.924;2023-03-09T03:20:11;2.0;78.5
9666;DHT22;4871;52.004;5.924;2023-03-09T03:21:10;2.0;78.4
9666;DHT22;4871;52.004;5.924;2023-03-09T03:22:10;2.0;78.4
9666;DHT22;4871;52.004;5.924;2023-03-09T03:23:10;2.0;78.2
9666;DHT22;4871;52.004;5.924;2023-03-09T03:24:10;2.0;78.3
9666;DHT22;4871;52.004;5.924;2023-03-09T03:25:11;2.0;78.4
9666;DHT22;4871;52.004;5.924;2023-03-09T03:26:10;2.1;78.2
9666;DHT22;4871;52.004;5.924;2023-03-09T03:27:10;2.0;78.2
9666;DHT22;4871;52.004;5.924;2023-03-09T03:28:10;2.0;78.1
9666;DHT22;4871;52.004;5.924;2023-03-09T03:29:10;2.0;78.3
9666;DHT22;4871;52.004;5.924;2023-03-09T03:30:11;2.0;78.2
9666;DHT22;4871;52.004;5.924;2023-03-09T03:31:11;2.0;78.2
9666;DHT22;4871;52.004;5.924;2023-03-09T03:32:10;2.0;78.2
9666;DHT22;4871;52.004;5.924;2023-03-09T03:33:10;2.0;78.2
9666;DHT22;4871;52.004;5.924;2023-03-09T03:34:10;2.0;78.2
9666;DHT22;4871;52.004;5.924;2023-03-09T03:35:10;2.0;77.8
9666;DHT22;4871;52.004;5.924;2023-03-09T03:36:10;2.0;78.2
9666;DHT22;4871;52.004;5.924;2023-03-09T03:37:10;2.0;78.3
9666;DHT22;4871;52.004;5.924;2023-03-09T03:38:10;2.0;78.2
9666;DHT22;4871;52.004;5.924;2023-03-09T03:39:10;2.1;78.2
9666;DHT22;4871;52.004;5.924;2023-03-09T03:40:11;2.0;78.2
9666;DHT22;4871;52.004;5.924;2023-03-09T03:41:10;2.0;78.2
9666;DHT22;4871;52.004;5.924;2023-03-09T03:42:10;2.0;78.3
9666;DHT22;4871;52.004;5.924;2023-03-09T03:43:10;2.0;78.1
9666;DHT22;4871;52.004;5.924;2023-03-09T03:44:10;2.0;78.1
9666;DHT22;4871;52.004;5.924;2023-03-09T03:45:10;2.0;78.3
9666;DHT22;4871;52.004;5.924;2023-03-09T03:46:10;2.0;78.3
9666;DHT22;4871;52.004;5.924;2023-03-09T03:47:10;2.0;78.3
9666;DHT22;4871;52.004;5.924;2023-03-09T03:48:10;2.0;78.1
9666;DHT22;4871;52.004;5.924;2023-03-09T03:49:10;2.1;78.2
9666;DHT22;4871;52.004;5.924;2023-03-09T03:50:10;2.0;78.1
9666;DHT22;4871;52.004;5.924;2023-03-09T03:51:10;2.0;78.1
9666;DHT22;4871;52.004;5.924;2023-03-09T03:52:10;2.0;78.3
9666;DHT22;4871;52.004;5.924;2023-03-09T03:53:10;2.0;78.0
9666;DHT22;4871;52.004;5.924;2023-03-09T03:54:10;2.1;78.2
9666;DHT22;4871;52.004;5.924;2023-03-09T03:55:10;2.1;78.2
9666;DHT22;4871;52.004;5.924;2023-03-09T03:56:10;2.1;78.2
9666;DHT22;4871;52.004;5.924;2023-03-09T03:57:10;2.0;78.2
9666;DHT22;4871;52.004;5.924;2023-03-09T03:58:10;2.0;78.2
9666;DHT22;4871;52.004;5.924;2023-03-09T03:59:10;2.0;78.4
9666;DHT22;4871;52.004;5.924;2023-03-09T04:00:11;2.0;78.4
9666;DHT22;4871;52.004;5.924;2023-03-09T04:01:10;2.0;78.2
9666;DHT22;4871;52.004;5.924;2023-03-09T04:02:10;2.0;78.2
9666;DHT22;4871;52.004;5.924;2023-03-09T04:03:10;2.0;78.1
9666;DHT22;4871;52.004;5.924;2023-03-09T04:04:10;2.0;78.2
9666;DHT22;4871;52.004;5.924;2023-03-09T04:05:10;2.0;78.2
9666;DHT22;4871;52.004;5.924;2023-03-09T04:06:10;2.0;78.3
9666;DHT22;4871;52.004;5.924;2023-03-09T04:07:10;2.0;78.3
9666;DHT22;4871;52.004;5.924;2023-03-09T04:08:10;2.0;78.3
9666;DHT22;4871;52.004;5.924;2023-03-09T04:09:10;2.0;78.3
9666;DHT22;4871;52.004;5.924;2023-03-09T04:10:10;2.0;78.4
9666;DHT22;4871;52.004;5.924;2023-03-09T04:11:10;2.0;78.2
9666;DHT22;4871;52.004;5.924;2023-03-09T04:12:10;2.0;78.2
9666;DHT22;4871;52.004;5.924;2023-03-09T04:13:11;2.0;78.2
9666;DHT22;4871;52.004;5.924;2023-03-09T04:14:10;2.0;78.2
9666;DHT22;4871;52.004;5.924;2023-03-09T04:15:10;2.1;78.0
9666;DHT22;4871;52.004;5.924;2023-03-09T04:16:10;2.0;78.2
9666;DHT22;4871;52.004;5.924;2023-03-09T04:17:10;2.0;78.2
9666;DHT22;4871;52.004;5.924;2023-03-09T04:18:10;2.0;78.1
9666;DHT22;4871;52.004;5.924;2023-03-09T04:19:10;2.0;78.1
9666;DHT22;4871;52.004;5.924;2023-03-09T04:20:11;2.0;78.2
9666;DHT22;4871;52.004;5.924;2023-03-09T04:21:10;2.0;78.2
9666;DHT22;4871;52.004;5.924;2023-03-09T04:22:10;2.0;78.3
9666;DHT22;4871;52.004;5.924;2023-03-09T04:23:10;2.0;78.4
9666;DHT22;4871;52.004;5.924;2023-03-09T04:24:10;2.0;78.2
9666;DHT22;4871;52.004;5.924;2023-03-09T04:25:10;2.0;78.4
9666;DHT22;4871;52.004;5.924;2023-03-09T04:26:10;2.0;78.3
9666;DHT22;4871;52.004;5.924;2023-03-09T04:27:10;2.0;78.4
9666;DHT22;4871;52.004;5.924;2023-03-09T04:28:10;2.0;78.5
9666;DHT22;4871;52.004;5.924;2023-03-09T04:29:10;2.0;78.4
9666;DHT22;4871;52.004;5.924;2023-03-09T04:30:11;2.0;78.4
9666;DHT22;4871;52.004;5.924;2023-03-09T04:31:11;2.0;78.4
9666;DHT22;4871;52.004;5.924;2023-03-09T04:32:10;2.0;78.3
9666;DHT22;4871;52.004;5.924;2023-03-09T04:33:10;2.0;78.4
9666;DHT22;4871;52.004;5.924;2023-03-09T04:34:11;2.0;78.5
9666;DHT22;4871;52.004;5.924;2023-03-09T04:35:10;2.0;78.4
9666;DHT22;4871;52.004;5.924;2023-03-09T04:36:11;2.0;78.2
9666;DHT22;4871;52.004;5.924;2023-03-09T04:37:11;2.0;78.3
9666;DHT22;4871;52.004;5.924;2023-03-09T04:38:10;2.0;78.3
9666;DHT22;4871;52.004;5.924;2023-03-09T04:39:10;2.0;78.2
9666;DHT22;4871;52.004;5.924;2023-03-09T04:40:11;2.0;78.2
9666;DHT22;4871;52.004;5.924;2023-03-09T04:41:11;2.0;78.3
9666;DHT22;4871;52.004;5.924;2023-03-09T04:42:10;2.0;78.2
9666;DHT22;4871;52.004;5.924;2023-03-09T04:43:10;2.0;78.2
9666;DHT22;4871;52.004;5.924;2023-03-09T04:44:10;2.0;78.2
9666;DHT22;4871;52.004;5.924;2023-03-09T04:45:10;2.0;78.0
9666;DHT22;4871;52.004;5.924;2023-03-09T04:46:10;2.0;78.1
9666;DHT22;4871;52.004;5.924;2023-03-09T04:47:11;2.0;78.2
9666;DHT22;4871;52.004;5.924;2023-03-09T04:48:10;2.0;78.2
9666;DHT22;4871;52.004;5.924;2023-03-09T04:49:10;2.0;78.1
9666;DHT22;4871;52.004;5.924;2023-03-09T04:50:10;2.0;78.1
9666;DHT22;4871;52.004;5.924;2023-03-09T04:51:10;2.0;78.1
9666;DHT22;4871;52.004;5.924;2023-03-09T04:52:10;2.0;78.2
9666;DHT22;4871;52.004;5.924;2023-03-09T04:53:10;2.0;78.3
9666;DHT22;4871;52.004;5.924;2023-03-09T04:54:10;2.0;78.4
9666;DHT22;4871;52.004;5.924;2023-03-09T04:55:10;2.0;78.3
9666;DHT22;4871;52.004;5.924;2023-03-09T04:56:10;2.0;78.3
9666;DHT22;4871;52.004;5.924;2023-03-09T04:57:10;2.0;78.2
9666;DHT22;4871;52.004;5.924;2023-03-09T04:58:10;2.0;78.2
9666;DHT22;4871;52.004;5.924;2023-03-09T04:59:10;2.0;78.1
9666;DHT22;4871;52.004;5.924;2023-03-09T05:00:11;2.0;78.2
9666;DHT22;4871;52.004;5.924;2023-03-09T05:01:10;2.0;78.2
9666;DHT22;4871;52.004;5.924;2023-03-09T05:02:10;2.0;78.3
9666;DHT22;4871;52.004;5.924;2023-03-09T05:03:10;2.0;78.3
9666;DHT22;4871;52.004;5.924;2023-03-09T05:04:10;2.0;78.3
9666;DHT22;4871;52.004;5.924;2023-03-09T05:05:10;2.0;78.2
9666;DHT22;4871;52.004;5.924;2023-03-09T05:06:10;2.0;78.1
9666;DHT22;4871;52.004;5.924;2023-03-09T05:07:10;2.0;78.1
9666;DHT22;4871;52.004;5.924;2023-03-09T05:08:10;2.0;78.2
9666;DHT22;4871;52.004;5.924;2023-03-09T05:09:10;2.0;78.2
9666;DHT22;4871;52.004;5.924;2023-03-09T05:10:11;2.0;78.2
9666;DHT22;4871;52.004;5.924;2023-03-09T05:11:10;2.0;78.1
9666;DHT22;4871;52.004;5.924;2023-03-09T05:12:10;2.0;78.0
9666;DHT22;4871;52.004;5.924;2023-03-09T05:13:10;2.0;78.1
9666;DHT22;4871;52.004;5.924;2023-03-09T05:14:10;2.0;78.0
9666;DHT22;4871;52.004;5.924;2023-03-09T05:15:11;2.0;78.1
9666;DHT22;4871;52.004;5.924;2023-03-09T05:16:10;2.0;78.1
9666;DHT22;4871;52.004;5.924;2023-03-09T05:17:10;2.0;78.0
9666;DHT22;4871;52.004;5.924;2023-03-09T05:18:10;2.0;78.2
9666;DHT22;4871;52.004;5.924;2023-03-09T05:19:11;2.0;78.0
9666;DHT22;4871;52.004;5.924;2023-03-09T05:20:11;2.0;78.1
9666;DHT22;4871;52.004;5.924;2023-03-09T05:21:10;2.0;78.2
9666;DHT22;4871;52.004;5.924;2023-03-09T05:22:10;2.0;78.1
9666;DHT22;4871;52.004;5.924;2023-03-09T05:23:10;2.0;78.1
9666;DHT22;4871;52.004;5.924;2023-03-09T05:24:10;2.0;78.0
9666;DHT22;4871;52.004;5.924;2023-03-09T05:25:10;2.0;78.1
9666;DHT22;4871;52.004;5.924;2023-03-09T05:26:10;2.0;78.0
9666;DHT22;4871;52.004;5.924;2023-03-09T05:27:10;2.0;78.1
9666;DHT22;4871;52.004;5.924;2023-03-09T05:28:11;2.0;78.1
9666;DHT22;4871;52.004;5.924;2023-03-09T05:29:10;2.0;78.0
9666;DHT22;4871;52.004;5.924;2023-03-09T05:30:10;2.0;78.1
9666;DHT22;4871;52.004;5.924;2023-03-09T05:31:12;2.0;78.1
9666;DHT22;4871;52.004;5.924;2023-03-09T05:32:10;2.0;78.1
9666;DHT22;4871;52.004;5.924;2023-03-09T05:33:10;2.0;78.2
9666;DHT22;4871;52.004;5.924;2023-03-09T05:34:10;2.0;78.2
9666;DHT22;4871;52.004;5.924;2023-03-09T05:35:10;2.0;78.0
9666;DHT22;4871;52.004;5.924;2023-03-09T05:36:14;2.0;78.1
9666;DHT22;4871;52.004;5.924;2023-03-09T05:37:10;2.0;78.1
9666;DHT22;4871;52.004;5.924;2023-03-09T05:38:10;2.0;78.1
9666;DHT22;4871;52.004;5.924;2023-03-09T05:39:10;2.0;78.1
9666;DHT22;4871;52.004;5.924;2023-03-09T05:40:11;2.0;78.2
9666;DHT22;4871;52.004;5.924;2023-03-09T05:41:10;2.0;78.2
9666;DHT22;4871;52.004;5.924;2023-03-09T05:42:10;2.0;78.1
9666;DHT22;4871;52.004;5.924;2023-03-09T05:43:11;2.0;78.1
9666;DHT22;4871;52.004;5.924;2023-03-09T05:44:10;2.0;78.0
9666;DHT22;4871;52.004;5.924;2023-03-09T05:45:10;2.0;78.0
9666;DHT22;4871;52.004;5.924;2023-03-09T05:46:12;2.0;78.1
9666;DHT22;4871;52.004;5.924;2023-03-09T05:47:10;2.1;78.0
9666;DHT22;4871;52.004;5.924;2023-03-09T05:48:10;2.1;78.0
9666;DHT22;4871;52.004;5.924;2023-03-09T05:49:10;2.1;78.0
9666;DHT22;4871;52.004;5.924;2023-03-09T05:50:10;2.1;78.1
9666;DHT22;4871;52.004;5.924;2023-03-09T05:51:11;2.0;78.0
9666;DHT22;4871;52.004;5.924;2023-03-09T05:52:10;2.1;78.1
9666;DHT22;4871;52.004;5.924;2023-03-09T05:53:10;2.0;78.1
9666;DHT22;4871;52.004;5.924;2023-03-09T05:54:10;2.0;78.1
9666;DHT22;4871;52.004;5.924;2023-03-09T05:55:10;2.0;78.0
9666;DHT22;4871;52.004;5.924;2023-03-09T05:56:10;2.0;78.1
9666;DHT22;4871;52.004;5.924;2023-03-09T05:57:11;2.0;78.1
9666;DHT22;4871;52.004;5.924;2023-03-09T05:58:10;2.0;78.1
9666;DHT22;4871;52.004;5.924;2023-03-09T05:59:10;2.0;78.1
9666;DHT22;4871;52.004;5.924;2023-03-09T06:00:13;2.0;78.1
9666;DHT22;4871;52.004;5.924;2023-03-09T06:01:17;2.0;78.0
9666;DHT22;4871;52.004;5.924;2023-03-09T06:02:10;2.0;78.2
9666;DHT22;4871;52.004;5.924;2023-03-09T06:03:10;2.0;78.1
9666;DHT22;4871;52.004;5.924;2023-03-09T06:04:10;2.0;78.0
9666;DHT22;4871;52.004;5.924;2023-03-09T06:05:10;2.0;78.2
9666;DHT22;4871;52.004;5.924;2023-03-09T06:06:10;2.0;78.2
9666;DHT22;4871;52.004;5.924;2023-03-09T06:07:10;2.1;78.2
9666;DHT22;4871;52.004;5.924;2023-03-09T06:08:10;2.0;78.1
9666;DHT22;4871;52.004;5.924;2023-03-09T06:09:10;2.0;78.2
9666;DHT22;4871;52.004;5.924;2023-03-09T06:10:10;2.0;78.2
9666;DHT22;4871;52.004;5.924;2023-03-09T06:11:10;2.0;78.1
9666;DHT22;4871;52.004;5.924;2023-03-09T06:12:10;2.0;78.1
9666;DHT22;4871;52.004;5.924;2023-03-09T06:13:10;2.0;78.2
9666;DHT22;4871;52.004;5.924;2023-03-09T06:14:10;2.0;78.0
9666;DHT22;4871;52.004;5.924;2023-03-09T06:15:10;2.0;78.1
9666;DHT22;4871;52.004;5.924;2023-03-09T06:16:12;2.0;78.2
9666;DHT22;4871;52.004;5.924;2023-03-09T06:17:10;2.0;78.1
9666;DHT22;4871;52.004;5.924;2023-03-09T06:18:10;2.0;78.2
9666;DHT22;4871;52.004;5.924;2023-03-09T06:19:11;2.0;78.1
9666;DHT22;4871;52.004;5.924;2023-03-09T06:20:11;2.0;78.2
9666;DHT22;4871;52.004;5.924;2023-03-09T06:21:11;2.0;78.1
9666;DHT22;4871;52.004;5.924;2023-03-09T06:22:10;2.0;78.0
9666;DHT22;4871;52.004;5.924;2023-03-09T06:23:10;2.0;78.2
9666;DHT22;4871;52.004;5.924;2023-03-09T06:24:10;2.0;78.1
9666;DHT22;4871;52.004;5.924;2023-03-09T06:25:11;2.1;78.2
9666;DHT22;4871;52.004;5.924;2023-03-09T06:26:11;2.1;78.1
9666;DHT22;4871;52.004;5.924;2023-03-09T06:27:10;2.0;78.0
9666;DHT22;4871;52.004;5.924;2023-03-09T06:28:10;2.0;78.1
9666;DHT22;4871;52.004;5.924;2023-03-09T06:29:10;2.0;78.1
9666;DHT22;4871;52.004;5.924;2023-03-09T06:30:11;2.1;78.1
9666;DHT22;4871;52.004;5.924;2023-03-09T06:31:13;2.0;78.0
9666;DHT22;4871;52.004;5.924;2023-03-09T06:32:10;2.1;78.1
9666;DHT22;4871;52.004;5.924;2023-03-09T06:33:10;2.1;78.1
9666;DHT22;4871;52.004;5.924;2023-03-09T06:34:10;2.1;78.1
9666;DHT22;4871;52.004;5.924;2023-03-09T06:35:10;2.1;78.1
9666;DHT22;4871;52.004;5.924;2023-03-09T06:36:11;2.0;78.0
9666;DHT22;4871;52.004;5.924;2023-03-09T06:37:10;2.1;78.2
9666;DHT22;4871;52.004;5.924;2023-03-09T06:38:10;2.0;78.2
9666;DHT22;4871;52.004;5.924;2023-03-09T06:39:10;2.1;78.1
9666;DHT22;4871;52.004;5.924;2023-03-09T06:40:11;2.1;78.2
9666;DHT22;4871;52.004;5.924;2023-03-09T06:41:10;2.1;78.1
9666;DHT22;4871;52.004;5.924;2023-03-09T06:42:10;2.1;78.1
9666;DHT22;4871;52.004;5.924;2023-03-09T06:43:10;2.1;78.1
9666;DHT22;4871;52.004;5.924;2023-03-09T06:44:10;2.1;78.1
9666;DHT22;4871;52.004;5.924;2023-03-09T06:45:10;2.1;78.0
9666;DHT22;4871;52.004;5.924;2023-03-09T06:46:10;2.1;78.2
9666;DHT22;4871;52.004;5.924;2023-03-09T06:47:11;2.1;78.2
9666;DHT22;4871;52.004;5.924;2023-03-09T06:48:10;2.1;78.1
9666;DHT22;4871;52.004;5.924;2023-03-09T06:49:10;2.1;78.1
9666;DHT22;4871;52.004;5.924;2023-03-09T06:50:10;2.1;77.9
9666;DHT22;4871;52.004;5.924;2023-03-09T06:51:10;2.1;78.0
9666;DHT22;4871;52.004;5.924;2023-03-09T06:52:10;2.1;78.0